sensor_id;sensor_type;location;lat;lon;timestamp;P1;durP1;ratioP1;P2;durP2;ratioP2
64938;SDS011;51453;47.738;7.420;2023-05-01T00:02:15;4.95;;;3.20;;
64938;SDS011;51453;47.738;7.420;2023-05-01T00:04:41;4.85;;;3.35;;
64938;SDS011;51453;47.738;7.420;2023-05-01T00:07:06;4.15;;;3.50;;
64938;SDS011;51453;47.738;7.420;2023-05-01T00:09:32;3.83;;;3.40;;
64938;SDS011;51453;47.738;7.420;2023-05-01T00:11:58;3.75;;;3.45;;
64938;SDS011;51453;47.738;7.420;2023-05-01T00:14:23;3.65;;;3.33;;
64938;SDS011;51453;47.738;7.420;2023-05-01T00:16:49;5.10;;;3.88;;
64938;SDS011;51453;47.738;7.420;2023-05-01T00:19:14;4.53;;;4.13;;
64938;SDS011;51453;47.738;7.420;2023-05-01T00:21:43;5.38;;;3.78;;
64938;SDS011;51453;47.738;7.420;2023-05-01T00:24:10;5.82;;;4.00;;
64938;SDS011;51453;47.738;7.420;2023-05-01T00:26:36;5.05;;;4.50;;
64938;SDS011;51453;47.738;7.420;2023-05-01T00:29:01;4.85;;;4.35;;
64938;SDS011;51453;47.738;7.420;2023-05-01T00:31:27;5.20;;;4.00;;
64938;SDS011;51453;47.738;7.420;2023-05-01T00:33:53;4.28;;;3.80;;
64938;SDS011;51453;47.738;7.420;2023-05-01T00:36:19;4.85;;;4.18;;
64938;SDS011;51453;47.738;7.420;2023-05-01T00:38:44;5.50;;;3.90;;
64938;SDS011;51453;47.738;7.420;2023-05-01T00:41:10;4.65;;;4.25;;
64938;SDS011;51453;47.738;7.420;2023-05-01T00:43:36;5.50;;;3.92;;
64938;SDS011;51453;47.738;7.420;2023-05-01T00:46:02;5.10;;;4.57;;
64938;SDS011;51453;47.738;7.420;2023-05-01T00:48:27;5.13;;;4.40;;
64938;SDS011;51453;47.738;7.420;2023-05-01T00:50:54;5.13;;;4.55;;
64938;SDS011;51453;47.738;7.420;2023-05-01T00:53:20;7.35;;;5.30;;
64938;SDS011;51453;47.738;7.420;2023-05-01T00:55:47;7.53;;;5.40;;
64938;SDS011;51453;47.738;7.420;2023-05-01T00:58:13;6.13;;;5.53;;
64938;SDS011;51453;47.738;7.420;2023-05-01T01:00:41;5.82;;;5.22;;
64938;SDS011;51453;47.738;7.420;2023-05-01T01:03:07;6.75;;;5.90;;
64938;SDS011;51453;47.738;7.420;2023-05-01T01:05:39;6.93;;;6.10;;
64938;SDS011;51453;47.738;7.420;2023-05-01T01:08:19;8.35;;;6.40;;
64938;SDS011;51453;47.738;7.420;2023-05-01T01:13:57;7.25;;;5.75;;
64938;SDS011;51453;47.738;7.420;2023-05-01T01:16:53;7.88;;;5.93;;
64938;SDS011;51453;47.738;7.420;2023-05-01T01:22:45;6.97;;;5.70;;
64938;SDS011;51453;47.738;7.420;2023-05-01T01:36:18;5.43;;;4.93;;
64938;SDS011;51453;47.738;7.420;2023-05-01T01:38:50;5.68;;;5.07;;
64938;SDS011;51453;47.738;7.420;2023-05-01T01:41:32;5.38;;;4.68;;
64938;SDS011;51453;47.738;7.420;2023-05-01T01:44:10;8.25;;;4.85;;
64938;SDS011;51453;47.738;7.420;2023-05-01T01:46:41;6.13;;;4.88;;
64938;SDS011;51453;47.738;7.420;2023-05-01T01:49:10;5.95;;;4.63;;
64938;SDS011;51453;47.738;7.420;2023-05-01T01:51:40;7.40;;;5.03;;
64938;SDS011;51453;47.738;7.420;2023-05-01T01:54:07;7.03;;;4.47;;
64938;SDS011;51453;47.738;7.420;2023-05-01T01:56:36;5.88;;;4.65;;
64938;SDS011;51453;47.738;7.420;2023-05-01T01:59:04;5.07;;;4.43;;
64938;SDS011;51453;47.738;7.420;2023-05-01T02:01:32;7.28;;;4.85;;
64938;SDS011;51453;47.738;7.420;2023-05-01T02:03:59;5.05;;;4.55;;
64938;SDS011;51453;47.738;7.420;2023-05-01T02:06:27;4.72;;;4.28;;
64938;SDS011;51453;47.738;7.420;2023-05-01T02:08:53;5.32;;;4.65;;
64938;SDS011;51453;47.738;7.420;2023-05-01T02:11:21;7.32;;;4.63;;
64938;SDS011;51453;47.738;7.420;2023-05-01T02:13:48;5.95;;;5.22;;
64938;SDS011;51453;47.738;7.420;2023-05-01T02:16:15;6.15;;;5.38;;
64938;SDS011;51453;47.738;7.420;2023-05-01T02:18:43;6.45;;;4.97;;
64938;SDS011;51453;47.738;7.420;2023-05-01T02:21:10;10.63;;;6.15;;
64938;SDS011;51453;47.738;7.420;2023-05-01T02:23:37;8.60;;;6.80;;
64938;SDS011;51453;47.738;7.420;2023-05-01T02:26:03;9.35;;;7.28;;
64938;SDS011;51453;47.738;7.420;2023-05-01T02:28:31;9.63;;;7.13;;
64938;SDS011;51453;47.738;7.420;2023-05-01T02:30:58;7.95;;;6.80;;
64938;SDS011;51453;47.738;7.420;2023-05-01T02:33:24;7.97;;;7.18;;
64938;SDS011;51453;47.738;7.420;2023-05-01T02:35:50;10.60;;;7.28;;
64938;SDS011;51453;47.738;7.420;2023-05-01T02:38:16;8.70;;;6.68;;
64938;SDS011;51453;47.738;7.420;2023-05-01T02:40:52;9.60;;;7.30;;
64938;SDS011;51453;47.738;7.420;2023-05-01T02:43:22;9.95;;;7.75;;
64938;SDS011;51453;47.738;7.420;2023-05-01T02:45:50;7.95;;;6.50;;
64938;SDS011;51453;47.738;7.420;2023-05-01T02:48:18;9.98;;;7.13;;
64938;SDS011;51453;47.738;7.420;2023-05-01T02:50:49;8.35;;;7.35;;
64938;SDS011;51453;47.738;7.420;2023-05-01T02:53:17;9.73;;;7.90;;
64938;SDS011;51453;47.738;7.420;2023-05-01T02:55:42;11.25;;;7.43;;
64938;SDS011;51453;47.738;7.420;2023-05-01T02:58:13;11.43;;;7.75;;
64938;SDS011;51453;47.738;7.420;2023-05-01T03:00:42;11.35;;;7.80;;
64938;SDS011;51453;47.738;7.420;2023-05-01T03:03:08;13.75;;;8.13;;
64938;SDS011;51453;47.738;7.420;2023-05-01T03:05:34;8.45;;;7.53;;
64938;SDS011;51453;47.738;7.420;2023-05-01T03:08:00;10.02;;;6.82;;
64938;SDS011;51453;47.738;7.420;2023-05-01T03:10:26;8.65;;;7.70;;
64938;SDS011;51453;47.738;7.420;2023-05-01T03:12:51;10.52;;;8.25;;
64938;SDS011;51453;47.738;7.420;2023-05-01T03:15:17;11.10;;;8.48;;
64938;SDS011;51453;47.738;7.420;2023-05-01T03:17:43;10.25;;;8.32;;
64938;SDS011;51453;47.738;7.420;2023-05-01T03:20:08;9.23;;;7.95;;
64938;SDS011;51453;47.738;7.420;2023-05-01T03:22:34;10.98;;;8.57;;
64938;SDS011;51453;47.738;7.420;2023-05-01T03:25:00;11.52;;;8.57;;
64938;SDS011;51453;47.738;7.420;2023-05-01T03:27:28;12.80;;;9.13;;
64938;SDS011;51453;47.738;7.420;2023-05-01T03:29:54;13.43;;;9.27;;
64938;SDS011;51453;47.738;7.420;2023-05-01T03:32:20;12.73;;;9.07;;
64938;SDS011;51453;47.738;7.420;2023-05-01T03:34:46;10.88;;;9.40;;
64938;SDS011;51453;47.738;7.420;2023-05-01T03:37:12;12.07;;;9.85;;
64938;SDS011;51453;47.738;7.420;2023-05-01T03:39:38;11.60;;;10.00;;
64938;SDS011;51453;47.738;7.420;2023-05-01T03:42:04;12.13;;;10.40;;
64938;SDS011;51453;47.738;7.420;2023-05-01T03:44:30;12.23;;;9.80;;
64938;SDS011;51453;47.738;7.420;2023-05-01T03:46:56;14.10;;;10.80;;
64938;SDS011;51453;47.738;7.420;2023-05-01T03:49:22;13.88;;;11.20;;
64938;SDS011;51453;47.738;7.420;2023-05-01T03:51:48;15.65;;;11.20;;
64938;SDS011;51453;47.738;7.420;2023-05-01T03:54:13;17.50;;;12.10;;
64938;SDS011;51453;47.738;7.420;2023-05-01T03:56:39;13.35;;;11.45;;
64938;SDS011;51453;47.738;7.420;2023-05-01T03:59:05;15.02;;;12.43;;
64938;SDS011;51453;47.738;7.420;2023-05-01T04:01:31;15.43;;;12.50;;
64938;SDS011;51453;47.738;7.420;2023-05-01T04:04:00;16.50;;;12.35;;
64938;SDS011;51453;47.738;7.420;2023-05-01T04:06:26;15.00;;;12.27;;
64938;SDS011;51453;47.738;7.420;2023-05-01T04:08:52;18.55;;;13.52;;
64938;SDS011;51453;47.738;7.420;2023-05-01T04:11:18;18.00;;;13.10;;
64938;SDS011;51453;47.738;7.420;2023-05-01T04:13:43;19.30;;;12.68;;
64938;SDS011;51453;47.738;7.420;2023-05-01T04:16:09;17.85;;;13.90;;
64938;SDS011;51453;47.738;7.420;2023-05-01T04:18:35;18.65;;;13.43;;
64938;SDS011;51453;47.738;7.420;2023-05-01T04:21:00;17.00;;;12.63;;
64938;SDS011;51453;47.738;7.420;2023-05-01T04:23:26;20.35;;;14.30;;
64938;SDS011;51453;47.738;7.420;2023-05-01T04:25:52;19.23;;;14.77;;
64938;SDS011;51453;47.738;7.420;2023-05-01T04:28:17;19.65;;;14.85;;
64938;SDS011;51453;47.738;7.420;2023-05-01T04:30:43;20.67;;;15.20;;
64938;SDS011;51453;47.738;7.420;2023-05-01T04:33:09;21.50;;;15.88;;
64938;SDS011;51453;47.738;7.420;2023-05-01T04:35:36;18.95;;;15.18;;
64938;SDS011;51453;47.738;7.420;2023-05-01T04:38:05;18.83;;;15.55;;
64938;SDS011;51453;47.738;7.420;2023-05-01T04:40:31;22.30;;;15.18;;
64938;SDS011;51453;47.738;7.420;2023-05-01T04:42:57;20.38;;;15.35;;
64938;SDS011;51453;47.738;7.420;2023-05-01T04:45:23;22.38;;;16.15;;
64938;SDS011;51453;47.738;7.420;2023-05-01T04:47:48;21.83;;;15.07;;
64938;SDS011;51453;47.738;7.420;2023-05-01T04:50:14;21.80;;;16.13;;
64938;SDS011;51453;47.738;7.420;2023-05-01T04:52:40;23.40;;;14.95;;
64938;SDS011;51453;47.738;7.420;2023-05-01T04:55:06;20.98;;;15.13;;
64938;SDS011;51453;47.738;7.420;2023-05-01T04:57:33;20.05;;;16.25;;
64938;SDS011;51453;47.738;7.420;2023-05-01T04:59:59;18.65;;;15.35;;
64938;SDS011;51453;47.738;7.420;2023-05-01T05:02:25;19.98;;;16.70;;
64938;SDS011;51453;47.738;7.420;2023-05-01T05:04:51;21.83;;;16.27;;
64938;SDS011;51453;47.738;7.420;2023-05-01T05:07:20;17.77;;;14.10;;
64938;SDS011;51453;47.738;7.420;2023-05-01T05:09:46;18.83;;;14.55;;
64938;SDS011;51453;47.738;7.420;2023-05-01T05:12:11;18.45;;;14.65;;
64938;SDS011;51453;47.738;7.420;2023-05-01T05:14:39;20.40;;;14.23;;
64938;SDS011;51453;47.738;7.420;2023-05-01T05:17:05;16.45;;;13.48;;
64938;SDS011;51453;47.738;7.420;2023-05-01T05:19:30;15.98;;;13.45;;
64938;SDS011;51453;47.738;7.420;2023-05-01T05:21:56;16.30;;;14.02;;
64938;SDS011;51453;47.738;7.420;2023-05-01T05:24:22;17.30;;;13.43;;
64938;SDS011;51453;47.738;7.420;2023-05-01T05:26:48;18.17;;;14.05;;
64938;SDS011;51453;47.738;7.420;2023-05-01T05:29:14;17.73;;;13.38;;
64938;SDS011;51453;47.738;7.420;2023-05-01T05:31:40;17.88;;;15.07;;
64938;SDS011;51453;47.738;7.420;2023-05-01T05:34:05;21.50;;;15.15;;
64938;SDS011;51453;47.738;7.420;2023-05-01T05:36:31;17.50;;;14.88;;
64938;SDS011;51453;47.738;7.420;2023-05-01T05:38:58;22.27;;;16.27;;
64938;SDS011;51453;47.738;7.420;2023-05-01T05:41:23;22.45;;;17.15;;
64938;SDS011;51453;47.738;7.420;2023-05-01T05:43:49;22.27;;;16.67;;
64938;SDS011;51453;47.738;7.420;2023-05-01T05:46:14;19.90;;;15.75;;
64938;SDS011;51453;47.738;7.420;2023-05-01T05:48:40;20.27;;;16.17;;
64938;SDS011;51453;47.738;7.420;2023-05-01T05:51:06;20.92;;;15.70;;
64938;SDS011;51453;47.738;7.420;2023-05-01T05:53:31;23.52;;;16.10;;
64938;SDS011;51453;47.738;7.420;2023-05-01T05:55:57;21.90;;;16.20;;
64938;SDS011;51453;47.738;7.420;2023-05-01T05:58:22;23.88;;;18.00;;
64938;SDS011;51453;47.738;7.420;2023-05-01T06:00:48;23.00;;;17.63;;
64938;SDS011;51453;47.738;7.420;2023-05-01T06:03:16;26.45;;;18.08;;
64938;SDS011;51453;47.738;7.420;2023-05-01T06:05:43;23.25;;;17.30;;
64938;SDS011;51453;47.738;7.420;2023-05-01T06:08:09;20.10;;;16.30;;
64938;SDS011;51453;47.738;7.420;2023-05-01T06:10:36;20.98;;;16.33;;
64938;SDS011;51453;47.738;7.420;2023-05-01T06:13:03;23.23;;;16.55;;
64938;SDS011;51453;47.738;7.420;2023-05-01T06:15:32;20.70;;;15.07;;
64938;SDS011;51453;47.738;7.420;2023-05-01T06:17:58;20.48;;;14.77;;
64938;SDS011;51453;47.738;7.420;2023-05-01T06:20:24;23.27;;;15.65;;
64938;SDS011;51453;47.738;7.420;2023-05-01T06:22:50;23.15;;;16.27;;
64938;SDS011;51453;47.738;7.420;2023-05-01T06:25:16;23.13;;;16.92;;
64938;SDS011;51453;47.738;7.420;2023-05-01T06:27:41;24.38;;;17.95;;
64938;SDS011;51453;47.738;7.420;2023-05-01T06:30:07;24.08;;;16.77;;
64938;SDS011;51453;47.738;7.420;2023-05-01T06:32:33;23.35;;;16.73;;
64938;SDS011;51453;47.738;7.420;2023-05-01T06:34:59;22.98;;;18.25;;
64938;SDS011;51453;47.738;7.420;2023-05-01T06:37:25;25.63;;;17.98;;
64938;SDS011;51453;47.738;7.420;2023-05-01T06:39:50;29.58;;;17.52;;
64938;SDS011;51453;47.738;7.420;2023-05-01T06:42:16;20.85;;;15.40;;
64938;SDS011;51453;47.738;7.420;2023-05-01T06:44:42;24.27;;;15.77;;
64938;SDS011;51453;47.738;7.420;2023-05-01T06:47:08;27.38;;;18.17;;
64938;SDS011;51453;47.738;7.420;2023-05-01T06:49:35;31.63;;;17.48;;
64938;SDS011;51453;47.738;7.420;2023-05-01T06:52:00;24.25;;;16.45;;
64938;SDS011;51453;47.738;7.420;2023-05-01T06:54:26;21.92;;;16.73;;
64938;SDS011;51453;47.738;7.420;2023-05-01T06:56:52;25.40;;;16.80;;
64938;SDS011;51453;47.738;7.420;2023-05-01T06:59:18;26.85;;;17.58;;
64938;SDS011;51453;47.738;7.420;2023-05-01T07:01:44;21.27;;;16.35;;
64938;SDS011;51453;47.738;7.420;2023-05-01T07:04:10;26.48;;;17.33;;
64938;SDS011;51453;47.738;7.420;2023-05-01T07:06:36;20.83;;;15.68;;
64938;SDS011;51453;47.738;7.420;2023-05-01T07:09:02;18.55;;;14.18;;
64938;SDS011;51453;47.738;7.420;2023-05-01T07:11:28;18.15;;;13.43;;
64938;SDS011;51453;47.738;7.420;2023-05-01T07:13:54;15.40;;;11.57;;
64938;SDS011;51453;47.738;7.420;2023-05-01T07:16:20;16.83;;;13.68;;
64938;SDS011;51453;47.738;7.420;2023-05-01T07:18:46;18.55;;;14.68;;
64938;SDS011;51453;47.738;7.420;2023-05-01T07:21:11;18.85;;;14.20;;
64938;SDS011;51453;47.738;7.420;2023-05-01T07:23:37;15.60;;;12.75;;
64938;SDS011;51453;47.738;7.420;2023-05-01T07:26:03;16.48;;;13.10;;
64938;SDS011;51453;47.738;7.420;2023-05-01T07:28:29;15.52;;;12.18;;
64938;SDS011;51453;47.738;7.420;2023-05-01T07:30:55;12.00;;;10.70;;
64938;SDS011;51453;47.738;7.420;2023-05-01T07:33:21;11.80;;;9.27;;
64938;SDS011;51453;47.738;7.420;2023-05-01T07:35:49;9.68;;;8.60;;
64938;SDS011;51453;47.738;7.420;2023-05-01T07:38:15;14.00;;;10.40;;
64938;SDS011;51453;47.738;7.420;2023-05-01T07:40:41;18.70;;;11.98;;
64938;SDS011;51453;47.738;7.420;2023-05-01T07:43:07;14.48;;;10.45;;
64938;SDS011;51453;47.738;7.420;2023-05-01T07:45:35;15.55;;;10.85;;
64938;SDS011;51453;47.738;7.420;2023-05-01T07:48:04;14.07;;;10.00;;
64938;SDS011;51453;47.738;7.420;2023-05-01T07:50:30;10.13;;;9.00;;
64938;SDS011;51453;47.738;7.420;2023-05-01T07:52:56;12.85;;;9.13;;
64938;SDS011;51453;47.738;7.420;2023-05-01T07:55:22;12.95;;;9.18;;
64938;SDS011;51453;47.738;7.420;2023-05-01T07:57:48;10.27;;;8.88;;
64938;SDS011;51453;47.738;7.420;2023-05-01T08:00:14;8.73;;;7.82;;
64938;SDS011;51453;47.738;7.420;2023-05-01T08:02:41;10.63;;;7.82;;
64938;SDS011;51453;47.738;7.420;2023-05-01T08:05:07;7.72;;;6.97;;
64938;SDS011;51453;47.738;7.420;2023-05-01T08:07:33;6.60;;;5.90;;
64938;SDS011;51453;47.738;7.420;2023-05-01T08:09:58;7.80;;;6.38;;
64938;SDS011;51453;47.738;7.420;2023-05-01T08:12:24;7.30;;;5.85;;
64938;SDS011;51453;47.738;7.420;2023-05-01T08:14:51;7.20;;;6.45;;
64938;SDS011;51453;47.738;7.420;2023-05-01T08:17:17;8.20;;;6.43;;
64938;SDS011;51453;47.738;7.420;2023-05-01T08:19:42;6.03;;;5.43;;
64938;SDS011;51453;47.738;7.420;2023-05-01T08:22:09;5.75;;;5.15;;
64938;SDS011;51453;47.738;7.420;2023-05-01T08:24:35;6.53;;;5.78;;
64938;SDS011;51453;47.738;7.420;2023-05-01T08:27:02;6.25;;;5.53;;
64938;SDS011;51453;47.738;7.420;2023-05-01T08:29:28;6.55;;;5.20;;
64938;SDS011;51453;47.738;7.420;2023-05-01T08:31:54;5.82;;;5.32;;
64938;SDS011;51453;47.738;7.420;2023-05-01T08:34:22;6.00;;;5.40;;
64938;SDS011;51453;47.738;7.420;2023-05-01T08:36:48;6.10;;;5.00;;
64938;SDS011;51453;47.738;7.420;2023-05-01T08:39:14;5.40;;;4.90;;
64938;SDS011;51453;47.738;7.420;2023-05-01T08:41:39;5.25;;;4.82;;
64938;SDS011;51453;47.738;7.420;2023-05-01T08:44:08;4.82;;;4.32;;
64938;SDS011;51453;47.738;7.420;2023-05-01T08:46:47;4.90;;;4.40;;
64938;SDS011;51453;47.738;7.420;2023-05-01T08:49:22;6.30;;;4.43;;
64938;SDS011;51453;47.738;7.420;2023-05-01T08:51:49;5.10;;;4.10;;
64938;SDS011;51453;47.738;7.420;2023-05-01T08:54:17;4.60;;;4.20;;
64938;SDS011;51453;47.738;7.420;2023-05-01T08:56:45;4.20;;;3.80;;
64938;SDS011;51453;47.738;7.420;2023-05-01T08:59:11;3.75;;;3.45;;
64938;SDS011;51453;47.738;7.420;2023-05-01T09:01:38;4.20;;;3.80;;
64938;SDS011;51453;47.738;7.420;2023-05-01T09:04:05;4.20;;;3.70;;
64938;SDS011;51453;47.738;7.420;2023-05-01T09:06:35;4.63;;;3.65;;
64938;SDS011;51453;47.738;7.420;2023-05-01T09:09:01;4.60;;;4.00;;
64938;SDS011;51453;47.738;7.420;2023-05-01T09:11:27;4.05;;;3.67;;
64938;SDS011;51453;47.738;7.420;2023-05-01T09:13:54;4.03;;;3.63;;
64938;SDS011;51453;47.738;7.420;2023-05-01T09:16:21;5.65;;;3.60;;
64938;SDS011;51453;47.738;7.420;2023-05-01T09:18:46;4.18;;;3.67;;
64938;SDS011;51453;47.738;7.420;2023-05-01T09:21:12;4.80;;;3.67;;
64938;SDS011;51453;47.738;7.420;2023-05-01T09:23:38;5.10;;;3.53;;
64938;SDS011;51453;47.738;7.420;2023-05-01T09:26:05;4.35;;;3.90;;
64938;SDS011;51453;47.738;7.420;2023-05-01T09:28:38;4.45;;;4.05;;
64938;SDS011;51453;47.738;7.420;2023-05-01T09:31:19;4.40;;;4.00;;
64938;SDS011;51453;47.738;7.420;2023-05-01T09:33:55;5.05;;;4.22;;
64938;SDS011;51453;47.738;7.420;2023-05-01T09:36:23;5.60;;;4.38;;
64938;SDS011;51453;47.738;7.420;2023-05-01T09:38:50;4.97;;;4.45;;
64938;SDS011;51453;47.738;7.420;2023-05-01T09:41:16;5.15;;;4.65;;
64938;SDS011;51453;47.738;7.420;2023-05-01T09:43:47;5.30;;;4.80;;
64938;SDS011;51453;47.738;7.420;2023-05-01T09:46:15;4.75;;;4.30;;
64938;SDS011;51453;47.738;7.420;2023-05-01T09:48:41;7.22;;;5.15;;
64938;SDS011;51453;47.738;7.420;2023-05-01T09:53:47;6.03;;;4.72;;
64938;SDS011;51453;47.738;7.420;2023-05-01T09:56:13;6.57;;;5.60;;
64938;SDS011;51453;47.738;7.420;2023-05-01T09:58:40;8.10;;;6.05;;
64938;SDS011;51453;47.738;7.420;2023-05-01T10:01:06;6.18;;;5.68;;
64938;SDS011;51453;47.738;7.420;2023-05-01T10:03:33;6.90;;;5.43;;
64938;SDS011;51453;47.738;7.420;2023-05-01T10:05:59;5.78;;;5.28;;
64938;SDS011;51453;47.738;7.420;2023-05-01T10:08:33;5.45;;;4.95;;
64938;SDS011;51453;47.738;7.420;2023-05-01T10:11:11;8.30;;;5.07;;
64938;SDS011;51453;47.738;7.420;2023-05-01T10:13:38;5.60;;;5.10;;
64938;SDS011;51453;47.738;7.420;2023-05-01T10:16:03;6.13;;;5.18;;
64938;SDS011;51453;47.738;7.420;2023-05-01T10:18:34;6.95;;;5.10;;
64938;SDS011;51453;47.738;7.420;2023-05-01T10:21:01;6.22;;;5.63;;
64938;SDS011;51453;47.738;7.420;2023-05-01T10:23:27;6.68;;;5.55;;
64938;SDS011;51453;47.738;7.420;2023-05-01T10:25:53;5.60;;;4.80;;
64938;SDS011;51453;47.738;7.420;2023-05-01T10:28:21;5.85;;;5.25;;
64938;SDS011;51453;47.738;7.420;2023-05-01T10:30:49;6.47;;;5.40;;
64938;SDS011;51453;47.738;7.420;2023-05-01T10:33:15;6.30;;;5.70;;
64938;SDS011;51453;47.738;7.420;2023-05-01T10:35:43;4.93;;;4.50;;
64938;SDS011;51453;47.738;7.420;2023-05-01T10:38:18;7.80;;;5.55;;
64938;SDS011;51453;47.738;7.420;2023-05-01T10:40:48;7.43;;;4.60;;
64938;SDS011;51453;47.738;7.420;2023-05-01T10:45:50;8.38;;;5.38;;
64938;SDS011;51453;47.738;7.420;2023-05-01T10:51:14;13.35;;;8.48;;
64938;SDS011;51453;47.738;7.420;2023-05-01T10:53:45;15.80;;;9.95;;
64938;SDS011;51453;47.738;7.420;2023-05-01T10:58:56;30.45;;;27.15;;
64938;SDS011;51453;47.738;7.420;2023-05-01T11:01:35;12.95;;;11.55;;
64938;SDS011;51453;47.738;7.420;2023-05-01T11:06:32;6.68;;;5.78;;
64938;SDS011;51453;47.738;7.420;2023-05-01T11:08:58;18.73;;;13.90;;
64938;SDS011;51453;47.738;7.420;2023-05-01T11:19:01;10.18;;;7.25;;
64938;SDS011;51453;47.738;7.420;2023-05-01T11:21:32;5.55;;;5.05;;
64938;SDS011;51453;47.738;7.420;2023-05-01T11:24:01;11.13;;;8.23;;
64938;SDS011;51453;47.738;7.420;2023-05-01T11:26:28;75.78;;;51.45;;
64938;SDS011;51453;47.738;7.420;2023-05-01T11:28:57;120.22;;;89.40;;
64938;SDS011;51453;47.738;7.420;2023-05-01T11:31:27;123.50;;;97.03;;
64938;SDS011;51453;47.738;7.420;2023-05-01T11:33:56;41.05;;;29.50;;
64938;SDS011;51453;47.738;7.420;2023-05-01T11:36:22;66.70;;;43.53;;
64938;SDS011;51453;47.738;7.420;2023-05-01T11:38:49;15.95;;;11.02;;
64938;SDS011;51453;47.738;7.420;2023-05-01T11:41:22;114.78;;;73.53;;
64938;SDS011;51453;47.738;7.420;2023-05-01T11:43:50;221.55;;;125.55;;
64938;SDS011;51453;47.738;7.420;2023-05-01T11:46:27;113.45;;;70.28;;
64938;SDS011;51453;47.738;7.420;2023-05-01T11:48:54;55.72;;;36.95;;
64938;SDS011;51453;47.738;7.420;2023-05-01T11:51:22;11.13;;;9.02;;
64938;SDS011;51453;47.738;7.420;2023-05-01T11:54:01;39.20;;;32.70;;
64938;SDS011;51453;47.738;7.420;2023-05-01T11:56:28;8.68;;;6.63;;
64938;SDS011;51453;47.738;7.420;2023-05-01T11:58:56;62.60;;;45.22;;
64938;SDS011;51453;47.738;7.420;2023-05-01T12:01:35;24.95;;;19.92;;
64938;SDS011;51453;47.738;7.420;2023-05-01T12:04:03;16.33;;;13.52;;
64938;SDS011;51453;47.738;7.420;2023-05-01T12:06:36;47.90;;;39.95;;
64938;SDS011;51453;47.738;7.420;2023-05-01T12:09:15;95.40;;;84.72;;
64938;SDS011;51453;47.738;7.420;2023-05-01T12:11:42;7.30;;;5.68;;
64938;SDS011;51453;47.738;7.420;2023-05-01T12:14:10;3.70;;;3.38;;
64938;SDS011;51453;47.738;7.420;2023-05-01T12:16:38;3.30;;;2.88;;
64938;SDS011;51453;47.738;7.420;2023-05-01T12:19:04;2.90;;;2.70;;
64938;SDS011;51453;47.738;7.420;2023-05-01T12:21:31;4.07;;;3.00;;
64938;SDS011;51453;47.738;7.420;2023-05-01T12:24:09;3.35;;;3.05;;
64938;SDS011;51453;47.738;7.420;2023-05-01T12:26:36;2.58;;;2.28;;
64938;SDS011;51453;47.738;7.420;2023-05-01T12:29:05;4.93;;;2.90;;
64938;SDS011;51453;47.738;7.420;2023-05-01T12:31:33;3.10;;;2.88;;
64938;SDS011;51453;47.738;7.420;2023-05-01T12:36:27;3.60;;;2.40;;
64938;SDS011;51453;47.738;7.420;2023-05-01T12:38:59;2.78;;;2.58;;
64938;SDS011;51453;47.738;7.420;2023-05-01T12:41:41;4.18;;;2.40;;
64938;SDS011;51453;47.738;7.420;2023-05-01T12:44:18;5.88;;;2.92;;
64938;SDS011;51453;47.738;7.420;2023-05-01T12:46:55;3.72;;;2.80;;
64938;SDS011;51453;47.738;7.420;2023-05-01T12:49:23;5.35;;;3.00;;
64938;SDS011;51453;47.738;7.420;2023-05-01T12:51:50;2.90;;;2.60;;
64938;SDS011;51453;47.738;7.420;2023-05-01T12:54:18;2.67;;;2.17;;
64938;SDS011;51453;47.738;7.420;2023-05-01T12:56:44;2.53;;;2.33;;
64938;SDS011;51453;47.738;7.420;2023-05-01T12:59:24;2.70;;;2.50;;
64938;SDS011;51453;47.738;7.420;2023-05-01T13:02:01;5.47;;;2.20;;
64938;SDS011;51453;47.738;7.420;2023-05-01T13:04:30;2.97;;;2.15;;
64938;SDS011;51453;47.738;7.420;2023-05-01T13:06:56;1.95;;;1.80;;
64938;SDS011;51453;47.738;7.420;2023-05-01T13:09:26;1.88;;;1.63;;
64938;SDS011;51453;47.738;7.420;2023-05-01T13:12:02;6.35;;;1.88;;
64938;SDS011;51453;47.738;7.420;2023-05-01T13:14:39;4.15;;;1.67;;
64938;SDS011;51453;47.738;7.420;2023-05-01T13:17:08;1.67;;;1.58;;
64938;SDS011;51453;47.738;7.420;2023-05-01T13:19:35;1.70;;;1.60;;
64938;SDS011;51453;47.738;7.420;2023-05-01T13:22:01;1.80;;;1.70;;
64938;SDS011;51453;47.738;7.420;2023-05-01T13:24:37;3.53;;;1.70;;
64938;SDS011;51453;47.738;7.420;2023-05-01T13:27:03;2.17;;;1.80;;
64938;SDS011;51453;47.738;7.420;2023-05-01T13:29:30;3.30;;;1.80;;
64938;SDS011;51453;47.738;7.420;2023-05-01T13:31:56;1.92;;;1.80;;
64938;SDS011;51453;47.738;7.420;2023-05-01T13:34:28;1.73;;;1.63;;
64938;SDS011;51453;47.738;7.420;2023-05-01T13:36:55;2.67;;;1.85;;
64938;SDS011;51453;47.738;7.420;2023-05-01T13:39:21;5.93;;;2.08;;
64938;SDS011;51453;47.738;7.420;2023-05-01T13:41:47;3.75;;;1.90;;
64938;SDS011;51453;47.738;7.420;2023-05-01T13:44:13;2.17;;;1.95;;
64938;SDS011;51453;47.738;7.420;2023-05-01T13:46:40;2.33;;;2.10;;
64938;SDS011;51453;47.738;7.420;2023-05-01T13:49:06;2.08;;;1.90;;
64938;SDS011;51453;47.738;7.420;2023-05-01T13:51:32;2.17;;;1.90;;
64938;SDS011;51453;47.738;7.420;2023-05-01T13:54:03;5.68;;;2.05;;
64938;SDS011;51453;47.738;7.420;2023-05-01T13:56:31;4.22;;;2.08;;
64938;SDS011;51453;47.738;7.420;2023-05-01T13:58:59;2.35;;;2.15;;
64938;SDS011;51453;47.738;7.420;2023-05-01T14:01:25;2.13;;;1.92;;
64938;SDS011;51453;47.738;7.420;2023-05-01T14:03:51;2.22;;;2.13;;
64938;SDS011;51453;47.738;7.420;2023-05-01T14:06:21;6.50;;;1.67;;
64938;SDS011;51453;47.738;7.420;2023-05-01T14:08:48;3.78;;;2.08;;
64938;SDS011;51453;47.738;7.420;2023-05-01T14:11:15;2.33;;;1.95;;
64938;SDS011;51453;47.738;7.420;2023-05-01T14:13:42;2.40;;;2.20;;
64938;SDS011;51453;47.738;7.420;2023-05-01T14:16:21;2.00;;;1.90;;
64938;SDS011;51453;47.738;7.420;2023-05-01T14:18:48;2.00;;;1.90;;
64938;SDS011;51453;47.738;7.420;2023-05-01T14:21:17;3.00;;;1.90;;
64938;SDS011;51453;47.738;7.420;2023-05-01T14:23:43;2.33;;;1.58;;
64938;SDS011;51453;47.738;7.420;2023-05-01T14:26:10;2.63;;;1.80;;
64938;SDS011;51453;47.738;7.420;2023-05-01T14:28:41;2.42;;;1.70;;
64938;SDS011;51453;47.738;7.420;2023-05-01T14:31:09;3.00;;;1.75;;
64938;SDS011;51453;47.738;7.420;2023-05-01T14:33:42;2.17;;;1.92;;
64938;SDS011;51453;47.738;7.420;2023-05-01T14:36:08;1.40;;;1.40;;
64938;SDS011;51453;47.738;7.420;2023-05-01T14:38:35;3.22;;;1.63;;
64938;SDS011;51453;47.738;7.420;2023-05-01T14:41:04;2.00;;;1.80;;
64938;SDS011;51453;47.738;7.420;2023-05-01T14:43:29;1.50;;;1.40;;
64938;SDS011;51453;47.738;7.420;2023-05-01T14:45:55;2.55;;;1.50;;
64938;SDS011;51453;47.738;7.420;2023-05-01T14:48:22;2.15;;;1.60;;
64938;SDS011;51453;47.738;7.420;2023-05-01T14:50:49;4.43;;;1.40;;
64938;SDS011;51453;47.738;7.420;2023-05-01T14:53:15;1.98;;;1.30;;
64938;SDS011;51453;47.738;7.420;2023-05-01T14:55:41;1.83;;;1.42;;
64938;SDS011;51453;47.738;7.420;2023-05-01T14:58:07;1.52;;;1.42;;
64938;SDS011;51453;47.738;7.420;2023-05-01T15:00:32;2.22;;;1.33;;
64938;SDS011;51453;47.738;7.420;2023-05-01T15:02:58;1.63;;;1.30;;
64938;SDS011;51453;47.738;7.420;2023-05-01T15:05:25;1.67;;;1.58;;
64938;SDS011;51453;47.738;7.420;2023-05-01T15:07:55;3.13;;;1.38;;
64938;SDS011;51453;47.738;7.420;2023-05-01T15:10:21;2.30;;;1.20;;
64938;SDS011;51453;47.738;7.420;2023-05-01T15:12:50;1.70;;;1.60;;
64938;SDS011;51453;47.738;7.420;2023-05-01T15:15:16;2.17;;;1.20;;
64938;SDS011;51453;47.738;7.420;2023-05-01T15:17:41;1.60;;;1.50;;
64938;SDS011;51453;47.738;7.420;2023-05-01T15:20:07;2.50;;;1.60;;
64938;SDS011;51453;47.738;7.420;2023-05-01T15:22:34;1.80;;;1.40;;